createdAt,value
2023-04-04T00:01:34.082Z,2.20
2023-04-04T00:04:01.071Z,2.53
2023-04-04T00:06:28.209Z,2.03
2023-04-04T00:08:55.118Z,2.00
2023-04-04T00:11:22.462Z,2.20
2023-04-04T00:13:49.306Z,2.22
2023-04-04T00:16:16.200Z,2.10
2023-04-04T00:18:43.069Z,1.90
2023-04-04T00:21:09.958Z,1.92
2023-04-04T00:23:37.062Z,1.98
2023-04-04T00:26:03.973Z,2.25
2023-04-04T00:28:31.359Z,1.92
2023-04-04T00:30:58.233Z,2.00
2023-04-04T00:33:25.131Z,2.25
2023-04-04T00:35:52.177Z,2.17
2023-04-04T00:38:19.125Z,2.47
2023-04-04T00:40:49.457Z,2.40
2023-04-04T00:43:17.139Z,2.45
2023-04-04T00:45:44.049Z,2.53
2023-04-04T00:48:11.110Z,1.92
2023-04-04T00:50:38.235Z,2.08
2023-04-04T00:53:05.580Z,2.58
2023-04-04T00:55:32.747Z,2.58
2023-04-04T00:58:00.578Z,1.88
2023-04-04T01:00:27.837Z,2.58
2023-04-04T01:02:54.788Z,2.17
2023-04-04T01:05:21.693Z,2.30
2023-04-04T01:07:48.725Z,2.30
2023-04-04T01:10:15.861Z,2.10
2023-04-04T01:12:43.120Z,2.85
2023-04-04T01:15:10.496Z,3.03
2023-04-04T01:17:37.838Z,2.50
2023-04-04T01:20:16.006Z,2.40
2023-04-04T01:22:45.638Z,2.20
2023-04-04T01:25:14.538Z,2.50
2023-04-04T01:27:41.794Z,2.40
2023-04-04T01:30:09.742Z,1.95
2023-04-04T01:33:03.985Z,2.53
2023-04-04T01:35:51.186Z,2.40
2023-04-04T01:38:37.875Z,2.30
2023-04-04T01:41:09.335Z,2.22
2023-04-04T01:43:36.306Z,2.10
2023-04-04T01:46:03.663Z,2.53
2023-04-04T01:48:30.625Z,2.40
2023-04-04T01:50:58.177Z,2.25
2023-04-04T01:53:25.042Z,2.30
2023-04-04T01:55:52.484Z,1.90
2023-04-04T01:58:19.342Z,2.00
2023-04-04T02:00:46.201Z,1.90
2023-04-04T02:03:13.082Z,1.90
2023-04-04T02:05:40.014Z,2.30
2023-04-04T02:08:07.716Z,2.30
2023-04-04T02:10:34.587Z,2.30
2023-04-04T02:13:01.421Z,2.17
2023-04-04T02:15:28.530Z,2.20
2023-04-04T02:17:55.361Z,2.30
2023-04-04T02:20:22.266Z,2.00
2023-04-04T02:22:53.918Z,2.17
2023-04-04T02:25:22.400Z,1.92
2023-04-04T02:27:49.329Z,2.75
2023-04-04T02:30:17.123Z,1.92
2023-04-04T02:32:44.007Z,1.88
2023-04-04T02:35:11.022Z,1.92
2023-04-04T02:37:37.926Z,1.98
2023-04-04T02:40:05.719Z,2.50
2023-04-04T02:42:32.615Z,2.53
2023-04-04T02:44:59.459Z,1.95
2023-04-04T02:47:26.892Z,2.30
2023-04-04T02:49:53.766Z,2.25
2023-04-04T02:52:22.277Z,2.00
2023-04-04T02:54:51.933Z,1.90
2023-04-04T02:57:18.847Z,1.77
2023-04-04T02:59:45.674Z,2.90
2023-04-04T03:02:12.560Z,2.03
2023-04-04T03:04:39.414Z,2.33
2023-04-04T03:07:06.282Z,1.83
2023-04-04T03:09:33.319Z,2.40
2023-04-04T03:12:01.315Z,2.65
2023-04-04T03:14:30.185Z,6.47
2023-04-04T03:16:57.672Z,6.10
2023-04-04T03:19:24.970Z,5.28
2023-04-04T03:21:51.892Z,3.53
2023-04-04T03:24:18.952Z,3.05
2023-04-04T03:26:45.836Z,3.10
2023-04-04T03:29:12.742Z,2.60
2023-04-04T03:31:40.082Z,2.33
2023-04-04T03:34:06.930Z,2.97
2023-04-04T03:36:33.751Z,2.60
2023-04-04T03:39:00.550Z,2.55
2023-04-04T03:41:28.081Z,2.30
2023-04-04T03:43:54.940Z,2.38
2023-04-04T03:46:21.864Z,2.55
2023-04-04T03:48:48.711Z,1.95
2023-04-04T03:51:15.616Z,2.20
2023-04-04T03:53:42.494Z,2.08
2023-04-04T03:56:10.606Z,2.53
2023-04-04T03:58:37.562Z,2.80
2023-04-04T04:01:04.366Z,3.60
2023-04-04T04:03:31.579Z,3.67
2023-04-04T04:05:59.945Z,3.20
2023-04-04T04:08:27.931Z,3.10
2023-04-04T04:10:54.874Z,3.70
2023-04-04T04:13:22.313Z,2.60
2023-04-04T04:15:49.511Z,2.20
2023-04-04T04:18:17.804Z,2.35
2023-04-04T04:20:46.324Z,6.15
2023-04-04T04:23:13.269Z,2.42
2023-04-04T04:25:40.111Z,2.22
2023-04-04T04:28:06.896Z,2.38
2023-04-04T04:30:33.772Z,2.28
2023-04-04T04:33:00.935Z,2.45
2023-04-04T04:35:27.804Z,2.28
2023-04-04T04:37:55.953Z,2.17
2023-04-04T04:40:22.774Z,2.53
2023-04-04T04:42:50.714Z,2.20
2023-04-04T04:45:18.696Z,2.60
2023-04-04T04:47:45.531Z,2.05
2023-04-04T04:50:12.400Z,2.95
2023-04-04T04:52:39.477Z,2.17
2023-04-04T04:55:06.919Z,2.30
2023-04-04T04:57:36.743Z,2.30
2023-04-04T05:00:04.671Z,2.58
2023-04-04T05:02:38.935Z,2.30
2023-04-04T05:05:06.456Z,2.70
2023-04-04T05:07:33.401Z,2.70
2023-04-04T05:10:00.389Z,3.00
2023-04-04T05:12:27.345Z,2.67
2023-04-04T05:14:55.579Z,3.15
2023-04-04T05:17:23.598Z,2.90
2023-04-04T05:19:50.752Z,3.10
2023-04-04T05:22:17.608Z,2.88
2023-04-04T05:24:44.805Z,2.60
2023-04-04T05:27:13.257Z,3.13
2023-04-04T05:29:40.051Z,2.60
2023-04-04T05:32:07.193Z,4.47
2023-04-04T05:34:33.961Z,3.67
2023-04-04T05:37:01.013Z,3.10
2023-04-04T05:39:28.145Z,3.33
2023-04-04T05:41:55.405Z,3.40
2023-04-04T05:44:23.479Z,3.00
2023-04-04T05:46:50.250Z,3.28
2023-04-04T05:49:17.200Z,3.22
2023-04-04T05:51:43.994Z,3.65
2023-04-04T05:54:13.933Z,3.40
2023-04-04T05:56:41.009Z,3.45
2023-04-04T05:59:07.832Z,3.20
2023-04-04T06:01:35.019Z,3.08
2023-04-04T06:04:01.820Z,3.35
2023-04-04T06:06:36.540Z,3.63
2023-04-04T06:09:03.512Z,3.17
2023-04-04T06:11:30.641Z,7.13
2023-04-04T06:13:58.695Z,4.07
2023-04-04T06:16:26.186Z,3.47
2023-04-04T06:18:53.041Z,4.60
2023-04-04T06:21:19.843Z,10.63
2023-04-04T06:23:46.805Z,4.80
2023-04-04T06:26:13.613Z,4.28
2023-04-04T06:28:49.765Z,10.30
2023-04-04T06:31:17.670Z,4.32
2023-04-04T06:33:44.549Z,4.00
2023-04-04T06:36:11.534Z,3.58
2023-04-04T06:38:39.062Z,3.40
2023-04-04T06:41:06.040Z,3.22
2023-04-04T06:43:35.551Z,3.70
2023-04-04T06:46:03.716Z,3.65
2023-04-04T06:48:31.553Z,3.60
2023-04-04T06:50:58.770Z,4.07
2023-04-04T06:53:26.183Z,3.33
2023-04-04T06:55:54.082Z,3.20
2023-04-04T06:58:20.877Z,3.33
2023-04-04T07:00:47.880Z,3.08
2023-04-04T07:03:15.001Z,3.20
2023-04-04T07:05:42.547Z,2.90
2023-04-04T07:08:12.416Z,2.88
2023-04-04T07:10:41.031Z,3.10
2023-04-04T07:13:10.191Z,3.03
2023-04-04T07:15:38.274Z,2.63
2023-04-04T07:18:05.164Z,2.72
2023-04-04T07:20:32.422Z,2.83
2023-04-04T07:23:00.239Z,3.20
2023-04-04T07:25:28.202Z,3.00
2023-04-04T07:28:06.020Z,2.88
2023-04-04T07:33:06.486Z,2.67
2023-04-04T07:35:33.306Z,3.10
2023-04-04T07:38:00.152Z,2.60
2023-04-04T07:40:27.970Z,4.10
2023-04-04T07:42:55.243Z,4.57
2023-04-04T07:45:25.093Z,4.13
2023-04-04T07:47:53.108Z,4.82
2023-04-04T07:50:20.999Z,3.20
2023-04-04T07:52:58.702Z,3.50
2023-04-04T07:55:28.405Z,3.40
2023-04-04T07:57:55.193Z,3.28
2023-04-04T08:00:26.641Z,3.95
2023-04-04T08:02:55.171Z,3.33
2023-04-04T08:05:22.765Z,3.17
2023-04-04T08:07:49.570Z,3.45
2023-04-04T08:10:19.732Z,2.70
2023-04-04T08:12:46.501Z,2.92
2023-04-04T08:15:13.939Z,3.63
2023-04-04T08:17:40.943Z,3.22
2023-04-04T08:20:08.141Z,3.65
2023-04-04T08:22:34.964Z,2.90
2023-04-04T08:25:01.849Z,3.20
2023-04-04T08:27:31.438Z,3.00
2023-04-04T08:29:58.390Z,3.00
2023-04-04T08:32:26.529Z,3.00
2023-04-04T08:34:53.380Z,3.50
2023-04-04T08:37:20.565Z,3.35
2023-04-04T08:39:47.421Z,3.08
2023-04-04T08:42:17.775Z,3.28
2023-04-04T08:44:51.004Z,3.10
2023-04-04T08:47:21.579Z,3.40
2023-04-04T08:49:52.076Z,3.08
2023-04-04T08:52:23.013Z,3.17
2023-04-04T08:54:52.018Z,2.90
2023-04-04T08:57:18.958Z,3.20
2023-04-04T08:59:46.851Z,3.70
2023-04-04T09:02:34.854Z,3.30
2023-04-04T09:05:06.625Z,2.63
2023-04-04T09:07:38.943Z,3.03
2023-04-04T09:10:10.719Z,2.85
2023-04-04T09:12:40.816Z,3.05
2023-04-04T09:15:08.362Z,3.38
2023-04-04T09:17:35.155Z,3.00
2023-04-04T09:20:04.592Z,3.28
2023-04-04T09:22:32.062Z,3.40
2023-04-04T09:24:58.836Z,3.50
2023-04-04T09:27:26.195Z,3.30
2023-04-04T09:29:52.976Z,3.35
2023-04-04T09:32:23.210Z,3.53
2023-04-04T09:34:50.440Z,3.10
2023-04-04T09:37:17.930Z,3.03
2023-04-04T09:39:46.186Z,3.30
2023-04-04T09:42:14.042Z,3.53
2023-04-04T09:44:41.938Z,2.92
2023-04-04T09:49:58.149Z,3.05
2023-04-04T09:52:25.223Z,3.28
2023-04-04T09:54:59.133Z,3.33
2023-04-04T09:57:30.924Z,3.00
2023-04-04T10:00:02.517Z,3.33
2023-04-04T10:02:32.642Z,3.03
2023-04-04T10:05:05.956Z,3.78
2023-04-04T10:07:33.975Z,3.10
2023-04-04T10:10:06.712Z,3.63
2023-04-04T10:12:33.522Z,3.10
2023-04-04T10:15:01.353Z,3.85
2023-04-04T10:17:37.999Z,3.67
2023-04-04T10:20:13.002Z,3.15
2023-04-04T10:22:40.368Z,3.60
2023-04-04T10:25:08.056Z,3.25
2023-04-04T10:27:35.157Z,3.42
2023-04-04T10:30:03.454Z,3.25
2023-04-04T10:32:52.174Z,3.33
2023-04-04T10:35:22.932Z,3.78
2023-04-04T10:37:59.176Z,3.60
2023-04-04T10:40:36.118Z,3.22
2023-04-04T10:43:05.393Z,3.17
2023-04-04T10:45:33.471Z,3.88
2023-04-04T10:48:03.220Z,3.60
2023-04-04T10:50:33.652Z,3.75
2023-04-04T10:53:02.350Z,3.60
2023-04-04T10:55:29.717Z,4.00
2023-04-04T10:57:57.196Z,4.10
2023-04-04T11:00:24.568Z,3.92
2023-04-04T11:02:56.996Z,5.97
2023-04-04T11:05:31.281Z,3.25
2023-04-04T11:10:33.542Z,3.35
2023-04-04T11:13:12.233Z,3.63
2023-04-04T11:16:01.041Z,4.00
2023-04-04T11:18:44.110Z,3.75
2023-04-04T11:21:14.496Z,4.05
2023-04-04T11:24:00.052Z,3.85
2023-04-04T11:26:28.041Z,3.35
2023-04-04T11:28:59.676Z,3.55
2023-04-04T11:31:29.359Z,3.25
2023-04-04T11:34:03.600Z,3.80
2023-04-04T11:39:28.999Z,3.00
2023-04-04T11:42:12.123Z,3.55
2023-04-04T11:44:51.282Z,2.90
2023-04-04T11:47:27.589Z,2.58
2023-04-04T11:49:54.968Z,3.13
2023-04-04T11:52:26.564Z,3.10
2023-04-04T11:54:53.401Z,2.95
2023-04-04T11:57:21.760Z,3.03
2023-04-04T11:59:51.661Z,2.92
2023-04-04T12:02:32.157Z,2.80
2023-04-04T12:04:59.916Z,3.05
2023-04-04T12:07:29.134Z,2.75
2023-04-04T12:09:57.940Z,2.67
2023-04-04T12:12:26.442Z,3.20
2023-04-04T12:15:00.240Z,2.78
2023-04-04T12:17:34.792Z,3.30
2023-04-04T12:20:02.947Z,3.70
2023-04-04T12:22:35.558Z,3.15
2023-04-04T12:25:02.477Z,3.33
2023-04-04T12:27:30.459Z,3.05
2023-04-04T12:29:58.046Z,3.80
2023-04-04T12:32:25.670Z,3.40
2023-04-04T12:34:52.931Z,2.97
2023-04-04T12:37:27.213Z,2.80
2023-04-04T12:39:55.679Z,3.15
2023-04-04T12:42:25.718Z,3.33
2023-04-04T12:44:54.206Z,3.50
2023-04-04T12:47:26.912Z,3.28
2023-04-04T12:49:56.028Z,3.30
2023-04-04T12:52:32.503Z,2.97
2023-04-04T12:55:08.413Z,3.40
2023-04-04T12:57:36.952Z,3.28
2023-04-04T13:00:06.868Z,2.60
2023-04-04T13:02:36.098Z,3.10
2023-04-04T13:05:07.918Z,3.08
2023-04-04T13:07:43.112Z,2.88
2023-04-04T13:10:15.035Z,2.83
2023-04-04T13:13:02.579Z,2.83
2023-04-04T13:15:52.600Z,3.35
2023-04-04T13:18:22.653Z,2.88
2023-04-04T13:20:50.619Z,2.97
2023-04-04T13:23:18.153Z,3.33
2023-04-04T13:25:45.128Z,3.17
2023-04-04T13:28:11.929Z,3.25
2023-04-04T13:30:39.979Z,3.08
2023-04-04T13:33:06.848Z,2.90
2023-04-04T13:35:33.695Z,2.90
2023-04-04T13:38:00.468Z,3.05
2023-04-04T13:40:27.856Z,3.10
2023-04-04T13:42:55.053Z,2.65
2023-04-04T13:45:22.366Z,2.88
2023-04-04T13:47:49.633Z,3.15
2023-04-04T13:50:17.132Z,3.25
2023-04-04T13:59:29.983Z,3.17
2023-04-04T14:01:57.211Z,3.65
2023-04-04T14:04:25.725Z,3.55
2023-04-04T14:06:52.648Z,2.95
2023-04-04T14:09:19.505Z,3.60
2023-04-04T14:11:46.516Z,3.10
2023-04-04T14:14:13.577Z,3.15
2023-04-04T14:16:40.662Z,2.85
2023-04-04T14:19:07.650Z,2.60
2023-04-04T14:21:34.801Z,2.90
2023-04-04T14:24:03.636Z,3.10
2023-04-04T14:26:30.750Z,2.78
2023-04-04T14:28:58.224Z,2.67
2023-04-04T14:31:25.636Z,2.75
2023-04-04T14:33:53.832Z,2.95
2023-04-04T14:36:21.816Z,2.90
2023-04-04T14:38:48.751Z,3.15
2023-04-04T14:41:17.836Z,2.92
2023-04-04T14:43:46.273Z,2.97
2023-04-04T14:46:13.184Z,2.90
2023-04-04T14:48:40.406Z,3.00
2023-04-04T14:51:07.606Z,2.50
2023-04-04T14:53:34.425Z,2.85
2023-04-04T14:56:01.284Z,3.28
2023-04-04T14:58:28.148Z,2.60
2023-04-04T15:00:55.894Z,2.92
2023-04-04T15:03:23.748Z,2.58
2023-04-04T15:05:53.193Z,2.80
2023-04-04T15:08:19.980Z,3.35
2023-04-04T15:10:58.691Z,2.80
2023-04-04T15:13:25.503Z,2.85
2023-04-04T15:15:52.482Z,3.33
2023-04-04T15:18:19.372Z,3.10
2023-04-04T15:20:46.635Z,3.15
2023-04-04T15:23:14.552Z,3.75
2023-04-04T15:25:49.830Z,2.33
2023-04-04T15:28:18.198Z,3.40
2023-04-04T15:30:45.709Z,2.88
2023-04-04T15:33:13.155Z,3.55
2023-04-04T15:35:40.117Z,2.92
2023-04-04T15:38:07.291Z,2.88
2023-04-04T15:40:34.146Z,3.40
2023-04-04T15:43:01.017Z,3.33
2023-04-04T15:45:29.017Z,3.38
2023-04-04T15:47:58.300Z,3.10
2023-04-04T15:50:25.238Z,3.08
2023-04-04T15:52:52.272Z,3.45
2023-04-04T15:55:22.022Z,2.92
2023-04-04T15:57:50.333Z,2.72
2023-04-04T16:00:18.965Z,3.13
2023-04-04T16:02:47.209Z,3.78
2023-04-04T16:05:14.085Z,3.17
2023-04-04T16:07:42.292Z,3.58
2023-04-04T16:10:11.420Z,3.60
2023-04-04T16:12:38.273Z,3.42
2023-04-04T16:15:07.585Z,3.05
2023-04-04T16:17:35.089Z,4.40
2023-04-04T16:20:02.060Z,3.35
2023-04-04T16:22:30.516Z,3.15
2023-04-04T16:24:57.304Z,3.80
2023-04-04T16:27:25.229Z,3.58
2023-04-04T16:29:52.497Z,3.30
2023-04-04T16:32:20.024Z,3.40
2023-04-04T16:34:47.009Z,3.40
2023-04-04T16:37:15.833Z,3.85
2023-04-04T16:39:42.683Z,4.13
2023-04-04T16:42:13.384Z,3.63
2023-04-04T16:44:45.567Z,4.65
2023-04-04T16:47:12.541Z,7.47
2023-04-04T16:49:41.371Z,4.05
2023-04-04T16:52:11.229Z,3.60
2023-04-04T16:54:38.437Z,3.85
2023-04-04T16:57:05.264Z,3.33
2023-04-04T16:59:32.397Z,3.03
2023-04-04T17:01:59.581Z,3.85
2023-04-04T17:04:27.874Z,4.32
2023-04-04T17:06:54.653Z,3.78
2023-04-04T17:09:22.823Z,3.80
2023-04-04T17:11:49.671Z,3.40
2023-04-04T17:14:18.855Z,3.50
2023-04-04T17:16:45.806Z,3.53
2023-04-04T17:19:12.687Z,3.80
2023-04-04T17:21:39.528Z,3.20
2023-04-04T17:24:07.448Z,3.67
2023-04-04T17:26:34.534Z,3.72
2023-04-04T17:29:01.751Z,3.58
2023-04-04T17:31:28.862Z,3.45
2023-04-04T17:33:56.461Z,3.78
2023-04-04T17:36:23.661Z,4.30
2023-04-04T17:38:50.571Z,3.55
2023-04-04T17:41:17.882Z,3.83
2023-04-04T17:43:44.822Z,3.97
2023-04-04T17:46:12.299Z,4.07
2023-04-04T17:48:39.192Z,4.32
2023-04-04T17:51:07.829Z,4.97
2023-04-04T17:53:35.933Z,5.10
2023-04-04T17:56:02.732Z,5.10
2023-04-04T17:58:29.497Z,6.72
2023-04-04T18:00:57.748Z,6.63
2023-04-04T18:03:26.563Z,7.95
2023-04-04T18:05:56.004Z,10.57
2023-04-04T18:08:22.860Z,7.50
2023-04-04T18:10:51.289Z,6.30
2023-04-04T18:13:20.789Z,6.40
2023-04-04T18:15:47.692Z,5.55
2023-04-04T18:18:14.532Z,5.47
2023-04-04T18:20:41.434Z,5.10
2023-04-04T18:23:10.450Z,5.22
2023-04-04T18:25:37.372Z,5.30
2023-04-04T18:28:04.216Z,5.95
2023-04-04T18:30:35.135Z,6.72
2023-04-04T18:33:02.163Z,6.38
2023-04-04T18:35:29.321Z,5.97
2023-04-04T18:37:56.176Z,5.90
2023-04-04T18:40:24.513Z,6.35
2023-04-04T18:42:54.658Z,7.07
2023-04-04T18:45:29.937Z,6.57
2023-04-04T18:48:01.748Z,5.13
2023-04-04T18:50:28.756Z,4.40
2023-04-04T18:52:57.015Z,5.20
2023-04-04T18:55:23.911Z,6.90
2023-04-04T18:57:50.841Z,6.78
2023-04-04T19:00:18.006Z,7.20
2023-04-04T19:02:45.227Z,5.85
2023-04-04T19:05:14.169Z,5.65
2023-04-04T19:07:45.614Z,6.65
2023-04-04T19:10:13.759Z,5.95
2023-04-04T19:12:40.890Z,5.60
2023-04-04T19:15:07.986Z,6.57
2023-04-04T19:17:36.331Z,8.20
2023-04-04T19:20:03.485Z,9.30
2023-04-04T19:22:33.198Z,8.55
2023-04-04T19:24:59.963Z,8.00
2023-04-04T19:27:27.298Z,8.10
2023-04-04T19:29:55.412Z,8.10
2023-04-04T19:32:27.335Z,6.43
2023-04-04T19:34:57.642Z,6.22
2023-04-04T19:37:24.800Z,5.65
2023-04-04T19:39:51.935Z,5.75
2023-04-04T19:42:25.239Z,6.60
2023-04-04T19:44:52.094Z,6.53
2023-04-04T19:47:20.654Z,5.90
2023-04-04T19:49:55.259Z,9.00
2023-04-04T19:52:24.150Z,8.15
2023-04-04T19:54:51.796Z,6.28
2023-04-04T19:57:22.776Z,5.70
2023-04-04T20:00:15.931Z,5.72
2023-04-04T20:02:57.934Z,5.65
2023-04-04T20:05:33.769Z,5.72
2023-04-04T20:08:01.540Z,6.50
2023-04-04T20:10:40.761Z,7.53
2023-04-04T20:13:08.784Z,7.35
2023-04-04T20:15:56.231Z,8.45
2023-04-04T20:18:31.056Z,8.65
2023-04-04T20:20:59.916Z,7.75
2023-04-04T20:23:27.547Z,7.63
2023-04-04T20:25:55.608Z,7.28
2023-04-04T20:28:28.822Z,6.18
2023-04-04T20:30:57.514Z,6.70
2023-04-04T20:33:33.231Z,6.63
2023-04-04T20:36:21.956Z,7.20
2023-04-04T20:38:48.992Z,6.57
2023-04-04T20:41:24.530Z,7.03
2023-04-04T20:43:56.161Z,7.13
2023-04-04T20:46:24.968Z,7.32
2023-04-04T20:48:56.461Z,7.38
2023-04-04T20:51:27.254Z,5.88
2023-04-04T20:53:56.615Z,7.20
2023-04-04T20:56:41.604Z,5.63
2023-04-04T20:59:31.159Z,5.88
2023-04-04T21:02:15.670Z,5.45
2023-04-04T21:04:45.726Z,5.65
2023-04-04T21:07:41.876Z,5.32
2023-04-04T21:10:27.477Z,4.88
2023-04-04T21:13:00.635Z,5.85
2023-04-04T21:15:29.849Z,5.15
2023-04-04T21:18:07.178Z,5.53
2023-04-04T21:20:46.723Z,5.30
2023-04-04T21:23:25.645Z,5.40
2023-04-04T21:26:03.668Z,4.93
2023-04-04T21:28:35.047Z,4.43
2023-04-04T21:31:09.399Z,5.32
2023-04-04T21:33:38.132Z,5.32
2023-04-04T21:36:07.987Z,4.88
2023-04-04T21:38:35.614Z,5.10
2023-04-04T21:41:12.933Z,5.00
2023-04-04T21:43:39.725Z,4.50
2023-04-04T21:46:06.599Z,5.30
2023-04-04T21:48:33.421Z,5.35
2023-04-04T21:51:00.248Z,4.40
2023-04-04T21:53:27.112Z,4.45
2023-04-04T21:55:54.124Z,4.95
2023-04-04T21:58:21.016Z,4.88
2023-04-04T22:00:47.811Z,5.10
2023-04-04T22:03:15.633Z,5.53
2023-04-04T22:05:42.576Z,5.00
2023-04-04T22:08:09.539Z,5.15
2023-04-04T22:10:45.472Z,5.10
2023-04-04T22:13:17.402Z,4.90
2023-04-04T22:15:47.123Z,5.32
2023-04-04T22:18:17.848Z,5.07
2023-04-04T22:20:47.208Z,5.07
2023-04-04T22:23:15.677Z,5.18
2023-04-04T22:25:44.009Z,4.80
2023-04-04T22:28:10.863Z,5.72
2023-04-04T22:30:42.786Z,4.90
2023-04-04T22:33:10.893Z,5.72
2023-04-04T22:35:38.144Z,5.43
2023-04-04T22:38:05.938Z,6.20
2023-04-04T22:40:34.082Z,5.57
2023-04-04T22:43:04.636Z,5.90
2023-04-04T22:45:32.579Z,6.10
2023-04-04T22:51:45.699Z,6.18
2023-04-04T22:54:16.899Z,6.80
2023-04-04T22:56:44.453Z,6.97
2023-04-04T22:59:11.586Z,6.50
2023-04-04T23:01:39.113Z,6.78
2023-04-04T23:04:06.221Z,5.82
2023-04-04T23:06:33.128Z,6.82
2023-04-04T23:08:59.942Z,6.90
2023-04-04T23:11:27.697Z,6.30
2023-04-04T23:13:57.278Z,5.93
2023-04-04T23:16:29.817Z,6.53
2023-04-04T23:33:46.440Z,6.88
2023-04-04T23:36:13.330Z,6.22
2023-04-04T23:38:40.512Z,5.82
2023-04-04T23:41:07.683Z,6.13
2023-04-04T23:43:36.250Z,6.15
2023-04-04T23:46:03.558Z,5.60
2023-04-04T23:48:30.397Z,6.25
2023-04-04T23:50:58.001Z,5.82
2023-04-04T23:53:26.491Z,5.35
2023-04-04T23:55:53.332Z,5.35
2023-04-04T23:58:20.670Z,6.38
